Time;durP1;ratioP1;P1;durP2;ratioP2;P2;SDS_P1;SDS_P2;PMS_P1;PMS_P2;Temp;Humidity;BMP_temperature;BMP_pressure;BME280_temperature;BME280_humidity;BME280_pressure;Samples;Min_cycle;Max_cycle;Signal;HPM_P1;HPM_P2
2023/07/31 00:00:50;;;;;;;2.47;1.75;;;;;;;;;;5007137;28;20042;-81
2023/07/31 00:03:16;;;;;;;2.15;1.42;;;;;;;;;;5006891;28;20405;-81
2023/07/31 00:05:42;;;;;;;2.63;1.90;;;;;;;;;;5006650;28;20498;-81
2023/07/31 00:08:08;;;;;;;3.55;1.80;;;;;;;;;;4988946;28;20073;-81
2023/07/31 00:10:34;;;;;;;2.22;1.20;;;;;;;;;;5009099;28;20117;-81
2023/07/31 00:13:00;;;;;;;2.45;1.90;;;;;;;;;;5008425;28;20546;-81
2023/07/31 00:15:26;;;;;;;3.83;1.65;;;;;;;;;;4987023;28;20483;-81
2023/07/31 00:17:52;;;;;;;3.40;1.50;;;;;;;;;;5006887;28;20050;-81
2023/07/31 00:20:18;;;;;;;4.28;1.73;;;;;;;;;;5007872;28;20041;-81
2023/07/31 00:22:44;;;;;;;2.63;1.50;;;;;;;;;;5007370;28;20087;-81
2023/07/31 00:25:10;;;;;;;2.92;1.55;;;;;;;;;;5008681;28;20033;-81
2023/07/31 00:27:36;;;;;;;2.53;1.80;;;;;;;;;;5011353;28;20042;-81
2023/07/31 00:30:02;;;;;;;1.85;1.40;;;;;;;;;;4995174;28;20510;-81
2023/07/31 00:32:28;;;;;;;3.40;1.88;;;;;;;;;;5008041;28;20034;-81
2023/07/31 00:34:54;;;;;;;2.42;2.10;;;;;;;;;;5012405;28;20104;-82
2023/07/31 00:37:20;;;;;;;2.75;1.55;;;;;;;;;;5008621;28;20113;-81
2023/07/31 00:39:46;;;;;;;2.78;1.52;;;;;;;;;;5011948;28;20477;-81
2023/07/31 00:42:12;;;;;;;1.92;1.50;;;;;;;;;;5012648;28;20145;-81
2023/07/31 00:44:38;;;;;;;1.70;1.30;;;;;;;;;;5009121;28;20041;-82
2023/07/31 00:47:04;;;;;;;2.65;1.50;;;;;;;;;;5011514;28;20117;-82
2023/07/31 00:49:30;;;;;;;3.90;1.73;;;;;;;;;;5009632;28;20038;-81
2023/07/31 00:51:57;;;;;;;2.20;1.50;;;;;;;;;;5010347;28;20048;-81
2023/07/31 00:54:23;;;;;;;2.00;1.42;;;;;;;;;;5009775;28;20038;-81
2023/07/31 00:56:50;;;;;;;2.38;1.35;;;;;;;;;;5012390;28;20069;-81
2023/07/31 00:59:18;;;;;;;3.20;1.17;;;;;;;;;;5009249;28;20069;-81
2023/07/31 01:01:44;;;;;;;1.67;1.27;;;;;;;;;;5009887;28;20092;-82
2023/07/31 01:04:11;;;;;;;1.67;1.02;;;;;;;;;;4991733;28;20399;-81
2023/07/31 01:06:41;;;;;;;1.67;1.05;;;;;;;;;;5009913;28;20084;-81
2023/07/31 01:09:07;;;;;;;2.72;1.30;;;;;;;;;;5011507;28;20053;-81
2023/07/31 01:11:39;;;;;;;1.77;1.10;;;;;;;;;;4991710;28;21900;-81
2023/07/31 01:14:05;;;;;;;2.13;1.25;;;;;;;;;;5009319;28;20091;-81
2023/07/31 01:16:31;;;;;;;1.38;0.90;;;;;;;;;;5006179;28;20053;-81
2023/07/31 01:18:57;;;;;;;1.75;0.90;;;;;;;;;;5011353;28;20034;-81
2023/07/31 01:21:23;;;;;;;1.35;1.00;;;;;;;;;;4993596;28;20097;-81
2023/07/31 01:23:52;;;;;;;1.55;0.93;;;;;;;;;;5000013;28;20069;-81
2023/07/31 01:26:23;;;;;;;1.65;0.57;;;;;;;;;;4996303;28;20034;-81
2023/07/31 01:29:04;;;;;;;1.05;0.77;;;;;;;;;;5010413;28;20091;-81
2023/07/31 01:31:30;;;;;;;1.27;0.77;;;;;;;;;;5010954;28;20426;-81
2023/07/31 01:33:59;;;;;;;1.30;0.80;;;;;;;;;;5011441;28;20403;-81
2023/07/31 01:36:26;;;;;;;0.93;0.80;;;;;;;;;;5010107;28;20053;-81
2023/07/31 01:38:52;;;;;;;1.15;0.70;;;;;;;;;;5009951;28;20062;-80
2023/07/31 01:41:18;;;;;;;1.88;0.70;;;;;;;;;;5010550;28;20046;-81
2023/07/31 01:43:45;;;;;;;2.10;1.00;;;;;;;;;;5011305;28;20049;-81
2023/07/31 01:46:11;;;;;;;0.90;0.73;;;;;;;;;;5010664;28;20491;-81
2023/07/31 01:48:37;;;;;;;1.13;0.70;;;;;;;;;;4992100;28;20095;-81
2023/07/31 01:51:03;;;;;;;1.23;0.52;;;;;;;;;;5011397;28;20030;-81
2023/07/31 01:53:30;;;;;;;0.45;0.43;;;;;;;;;;5001146;28;20462;-81
2023/07/31 01:55:56;;;;;;;1.08;0.70;;;;;;;;;;5003132;28;20050;-81
2023/07/31 01:58:22;;;;;;;0.73;0.70;;;;;;;;;;4991217;28;20034;-81
2023/07/31 02:00:48;;;;;;;0.65;0.65;;;;;;;;;;4999992;28;20364;-81
2023/07/31 02:03:14;;;;;;;1.10;0.63;;;;;;;;;;4990536;28;20045;-81
2023/07/31 02:05:47;;;;;;;1.25;0.75;;;;;;;;;;5008291;28;20042;-81
2023/07/31 02:08:13;;;;;;;1.00;0.93;;;;;;;;;;4991254;28;20042;-81
2023/07/31 02:10:39;;;;;;;1.48;0.80;;;;;;;;;;5008141;28;20134;-81
2023/07/31 02:13:05;;;;;;;1.65;0.77;;;;;;;;;;5010031;28;20042;-81
2023/07/31 02:15:31;;;;;;;0.93;0.60;;;;;;;;;;5007946;28;20033;-81
2023/07/31 02:17:57;;;;;;;0.95;0.70;;;;;;;;;;5009270;28;20073;-81
2023/07/31 02:20:23;;;;;;;0.60;0.50;;;;;;;;;;5009254;28;20117;-81
2023/07/31 02:22:49;;;;;;;1.00;0.45;;;;;;;;;;4991924;28;20077;-81
2023/07/31 02:25:15;;;;;;;1.05;0.63;;;;;;;;;;4990699;28;20041;-81
2023/07/31 02:27:41;;;;;;;0.73;0.50;;;;;;;;;;5000231;28;20044;-81
2023/07/31 02:30:08;;;;;;;0.80;0.50;;;;;;;;;;5010070;28;20038;-81
2023/07/31 02:32:34;;;;;;;0.93;0.55;;;;;;;;;;5009147;28;20176;-81
2023/07/31 02:35:00;;;;;;;0.40;0.40;;;;;;;;;;5008748;28;20128;-81
2023/07/31 02:37:26;;;;;;;1.05;0.50;;;;;;;;;;5004813;28;20041;-81
2023/07/31 02:39:52;;;;;;;0.38;0.30;;;;;;;;;;4985129;28;20173;-81
2023/07/31 02:42:18;;;;;;;0.63;0.47;;;;;;;;;;4986567;28;20050;-81
2023/07/31 02:44:44;;;;;;;0.75;0.25;;;;;;;;;;4989262;28;20410;-81
2023/07/31 02:47:10;;;;;;;0.68;0.50;;;;;;;;;;4970490;28;20043;-81
2023/07/31 02:49:36;;;;;;;0.50;0.50;;;;;;;;;;4982427;28;20034;-81
2023/07/31 02:52:02;;;;;;;0.63;0.45;;;;;;;;;;4989658;28;20038;-81
2023/07/31 02:54:28;;;;;;;0.73;0.38;;;;;;;;;;4988306;28;20034;-82
2023/07/31 02:56:54;;;;;;;0.35;0.30;;;;;;;;;;4988198;28;20042;-81
2023/07/31 02:59:20;;;;;;;0.70;0.45;;;;;;;;;;4987827;28;20047;-81
2023/07/31 03:01:46;;;;;;;1.67;0.50;;;;;;;;;;4987892;28;20038;-81
2023/07/31 03:04:12;;;;;;;1.50;0.30;;;;;;;;;;4985934;28;20054;-82
2023/07/31 03:06:38;;;;;;;0.70;0.45;;;;;;;;;;4988818;28;20049;-81
2023/07/31 03:09:04;;;;;;;1.77;0.60;;;;;;;;;;4987621;28;20188;-81
2023/07/31 03:11:30;;;;;;;2.05;0.60;;;;;;;;;;4989728;28;20076;-82
2023/07/31 03:13:56;;;;;;;0.47;0.47;;;;;;;;;;4989364;28;20054;-82
2023/07/31 03:16:22;;;;;;;0.88;0.80;;;;;;;;;;4988030;28;20400;-82
2023/07/31 03:18:48;;;;;;;1.10;0.75;;;;;;;;;;4989960;28;20081;-82
2023/07/31 03:21:14;;;;;;;1.55;0.70;;;;;;;;;;4988524;28;20487;-82
2023/07/31 03:23:41;;;;;;;1.10;0.70;;;;;;;;;;4989309;28;20125;-82
2023/07/31 03:26:07;;;;;;;1.00;0.70;;;;;;;;;;4990304;28;20101;-81
2023/07/31 03:28:34;;;;;;;1.38;0.77;;;;;;;;;;4989775;28;20493;-82
2023/07/31 03:31:00;;;;;;;0.57;0.47;;;;;;;;;;4988289;28;20125;-82
2023/07/31 03:33:26;;;;;;;1.23;0.90;;;;;;;;;;4987673;28;20100;-82
2023/07/31 03:35:52;;;;;;;0.77;0.77;;;;;;;;;;4988937;28;20057;-82
2023/07/31 03:38:18;;;;;;;2.38;1.02;;;;;;;;;;4987524;28;20038;-81
2023/07/31 03:40:44;;;;;;;1.98;1.02;;;;;;;;;;4988471;28;20062;-82
2023/07/31 03:43:11;;;;;;;1.05;0.85;;;;;;;;;;4990207;28;20066;-82
2023/07/31 03:45:37;;;;;;;1.25;0.88;;;;;;;;;;4987932;28;20046;-82
2023/07/31 03:48:04;;;;;;;0.80;0.80;;;;;;;;;;4988906;28;20124;-82
2023/07/31 03:50:30;;;;;;;1.23;0.80;;;;;;;;;;4988206;28;20057;-82
2023/07/31 03:52:56;;;;;;;1.30;0.80;;;;;;;;;;4989324;28;20057;-82
2023/07/31 03:55:22;;;;;;;1.25;0.70;;;;;;;;;;4987061;28;20043;-82
2023/07/31 03:57:48;;;;;;;1.50;1.20;;;;;;;;;;4988799;28;20082;-82
2023/07/31 04:00:14;;;;;;;1.38;0.85;;;;;;;;;;4988599;28;20073;-81
2023/07/31 04:02:40;;;;;;;1.42;0.75;;;;;;;;;;4991482;28;20046;-82
2023/07/31 04:05:06;;;;;;;1.90;1.00;;;;;;;;;;4991320;28;20053;-82
2023/07/31 04:07:32;;;;;;;2.22;0.88;;;;;;;;;;4989202;28;20041;-81
2023/07/31 04:09:58;;;;;;;0.75;0.73;;;;;;;;;;4990631;28;20048;-81
2023/07/31 04:12:24;;;;;;;1.00;0.80;;;;;;;;;;4987162;28;20627;-81
2023/07/31 04:14:51;;;;;;;1.10;0.70;;;;;;;;;;4989001;28;20121;-81
2023/07/31 04:17:20;;;;;;;2.17;0.90;;;;;;;;;;4988975;28;20451;-82
2023/07/31 04:19:46;;;;;;;0.70;0.60;;;;;;;;;;4983592;28;20038;-81
2023/07/31 04:22:12;;;;;;;2.28;0.90;;;;;;;;;;4984269;28;20042;-81
2023/07/31 04:24:38;;;;;;;2.67;1.00;;;;;;;;;;4989564;28;20563;-82
2023/07/31 04:27:04;;;;;;;2.15;0.80;;;;;;;;;;4992384;28;20462;-82
2023/07/31 04:29:30;;;;;;;1.25;0.82;;;;;;;;;;4991725;28;20069;-82
2023/07/31 04:31:56;;;;;;;2.85;1.10;;;;;;;;;;4992182;28;20038;-83
2023/07/31 04:34:22;;;;;;;2.08;0.93;;;;;;;;;;4991734;28;20113;-82
2023/07/31 04:36:48;;;;;;;4.13;1.15;;;;;;;;;;4991631;28;20042;-82
2023/07/31 04:39:14;;;;;;;1.52;1.20;;;;;;;;;;4994208;28;20054;-82
2023/07/31 04:41:40;;;;;;;1.80;1.10;;;;;;;;;;5011687;28;20046;-82
2023/07/31 04:44:06;;;;;;;3.75;1.30;;;;;;;;;;5011946;28;20466;-82
2023/07/31 04:46:32;;;;;;;5.20;1.60;;;;;;;;;;5011670;28;20487;-82
2023/07/31 04:48:58;;;;;;;2.17;1.48;;;;;;;;;;5010466;28;20113;-82
2023/07/31 04:51:25;;;;;;;4.68;1.80;;;;;;;;;;5009967;28;20030;-82
2023/07/31 04:53:51;;;;;;;4.50;2.20;;;;;;;;;;4987279;28;20507;-82
2023/07/31 04:56:17;;;;;;;4.93;2.20;;;;;;;;;;5000836;28;20041;-81
2023/07/31 04:58:43;;;;;;;6.53;2.08;;;;;;;;;;5008776;28;20121;-84
2023/07/31 05:01:09;;;;;;;3.50;2.20;;;;;;;;;;4991042;28;20046;-85
2023/07/31 05:03:35;;;;;;;3.88;2.00;;;;;;;;;;4981883;28;20099;-84
2023/07/31 05:06:01;;;;;;;4.85;2.50;;;;;;;;;;4977256;28;20049;-84
2023/07/31 05:08:27;;;;;;;4.78;2.20;;;;;;;;;;4986544;28;20226;-84
2023/07/31 05:10:53;;;;;;;4.55;2.03;;;;;;;;;;4989856;28;20049;-83
2023/07/31 05:13:19;;;;;;;5.15;2.15;;;;;;;;;;5004128;28;20459;-83
2023/07/31 05:15:45;;;;;;;6.35;2.53;;;;;;;;;;4991320;28;20046;-83
2023/07/31 05:18:11;;;;;;;6.13;2.92;;;;;;;;;;5004464;28;20041;-83
2023/07/31 05:20:37;;;;;;;8.75;3.35;;;;;;;;;;4986637;28;20068;-82
2023/07/31 05:23:03;;;;;;;6.55;2.90;;;;;;;;;;4988789;28;20464;-83
2023/07/31 05:25:29;;;;;;;10.77;3.25;;;;;;;;;;4988096;28;20099;-84
2023/07/31 05:27:55;;;;;;;10.80;3.47;;;;;;;;;;4991010;28;20464;-83
2023/07/31 05:30:21;;;;;;;12.35;4.15;;;;;;;;;;5010282;28;20442;-88
2023/07/31 05:32:47;;;;;;;11.77;4.15;;;;;;;;;;4990991;28;20185;-86
2023/07/31 05:35:13;;;;;;;9.77;3.65;;;;;;;;;;4990952;28;20125;-85
2023/07/31 05:37:39;;;;;;;13.55;4.18;;;;;;;;;;5008466;28;20129;-85
2023/07/31 05:40:06;;;;;;;10.60;4.57;;;;;;;;;;4986920;28;20137;-85
2023/07/31 05:42:32;;;;;;;9.85;3.80;;;;;;;;;;5003852;28;20054;-86
2023/07/31 05:44:58;;;;;;;11.80;3.95;;;;;;;;;;4989700;28;20039;-86
2023/07/31 05:47:24;;;;;;;8.82;4.22;;;;;;;;;;4976003;28;20030;-88
2023/07/31 05:49:52;;;;;;;9.23;3.45;;;;;;;;;;4990169;28;20221;-86
2023/07/31 05:52:18;;;;;;;11.90;4.18;;;;;;;;;;4990822;28;20419;-84
2023/07/31 05:54:45;;;;;;;11.32;4.25;;;;;;;;;;5000405;28;20135;-85
2023/07/31 05:57:12;;;;;;;9.82;4.07;;;;;;;;;;4985857;28;20057;-84
2023/07/31 05:59:38;;;;;;;13.07;4.32;;;;;;;;;;5001959;28;20042;-85
2023/07/31 06:02:04;;;;;;;8.40;3.90;;;;;;;;;;5007952;28;20038;-85
2023/07/31 06:04:30;;;;;;;15.10;4.55;;;;;;;;;;4999960;28;20037;-86
2023/07/31 06:06:56;;;;;;;13.75;4.72;;;;;;;;;;4987338;28;20051;-85
2023/07/31 06:09:22;;;;;;;11.93;4.15;;;;;;;;;;5001925;28;20049;-86
2023/07/31 06:11:49;;;;;;;11.07;3.85;;;;;;;;;;4978304;28;20034;-85
2023/07/31 06:14:15;;;;;;;9.43;4.15;;;;;;;;;;5006043;28;20050;-85
2023/07/31 06:16:41;;;;;;;11.68;4.10;;;;;;;;;;5009245;28;20129;-84
2023/07/31 06:19:07;;;;;;;12.70;4.13;;;;;;;;;;4984323;28;20510;-83
2023/07/31 06:21:41;;;;;;;12.02;4.93;;;;;;;;;;5003857;28;20061;-85
2023/07/31 06:24:08;;;;;;;12.18;4.10;;;;;;;;;;4988982;28;20053;-85
2023/07/31 06:26:34;;;;;;;10.32;3.83;;;;;;;;;;4991417;28;20053;-86
2023/07/31 06:29:00;;;;;;;9.00;3.90;;;;;;;;;;5006232;28;20108;-84
2023/07/31 06:31:26;;;;;;;11.00;4.45;;;;;;;;;;5006649;28;20042;-86
2023/07/31 06:33:52;;;;;;;13.65;5.43;;;;;;;;;;5004279;28;20081;-85
2023/07/31 06:36:18;;;;;;;12.23;4.65;;;;;;;;;;4996412;28;20049;-85
2023/07/31 06:38:44;;;;;;;8.27;4.00;;;;;;;;;;5007437;28;20403;-85
2023/07/31 06:41:10;;;;;;;8.98;3.92;;;;;;;;;;5003333;28;20060;-87
2023/07/31 06:43:37;;;;;;;13.13;5.05;;;;;;;;;;4980306;28;20207;-85
2023/07/31 06:46:06;;;;;;;10.02;4.18;;;;;;;;;;4991944;28;20400;-88
2023/07/31 06:48:33;;;;;;;13.00;4.55;;;;;;;;;;5001185;28;20068;-84
2023/07/31 06:50:59;;;;;;;10.70;4.65;;;;;;;;;;5000441;28;20041;-84
2023/07/31 06:53:25;;;;;;;13.15;5.03;;;;;;;;;;5000665;28;20129;-83
2023/07/31 06:55:51;;;;;;;8.70;4.70;;;;;;;;;;5007871;28;20431;-82
2023/07/31 06:58:17;;;;;;;11.18;4.85;;;;;;;;;;4991051;28;20108;-83
2023/07/31 07:00:43;;;;;;;14.93;5.18;;;;;;;;;;5006014;28;20034;-85
2023/07/31 07:03:09;;;;;;;11.38;4.88;;;;;;;;;;4985519;28;20073;-85
2023/07/31 07:05:36;;;;;;;9.18;4.10;;;;;;;;;;4991319;28;20038;-84
2023/07/31 07:08:02;;;;;;;10.10;4.55;;;;;;;;;;4987658;28;20046;-84
2023/07/31 07:10:28;;;;;;;11.75;5.35;;;;;;;;;;4987910;28;20046;-84
2023/07/31 07:12:55;;;;;;;8.35;4.00;;;;;;;;;;4973951;28;20042;-84
2023/07/31 07:15:21;;;;;;;7.95;3.92;;;;;;;;;;4983367;28;20111;-95
2023/07/31 07:17:47;;;;;;;8.75;3.90;;;;;;;;;;5004882;28;20041;-81
2023/07/31 07:20:13;;;;;;;6.53;3.80;;;;;;;;;;4991334;28;20168;-81
2023/07/31 07:22:41;;;;;;;6.50;3.40;;;;;;;;;;5005795;28;20091;-82
2023/07/31 07:25:07;;;;;;;8.82;4.05;;;;;;;;;;4998049;28;20046;-85
2023/07/31 07:27:33;;;;;;;10.45;3.78;;;;;;;;;;5001272;28;20049;-85
2023/07/31 07:29:59;;;;;;;8.57;3.80;;;;;;;;;;5000303;28;20493;-82
2023/07/31 07:32:25;;;;;;;6.60;3.45;;;;;;;;;;5001549;28;20407;-81
2023/07/31 07:34:51;;;;;;;6.65;3.03;;;;;;;;;;5000394;28;20057;-88
2023/07/31 07:37:17;;;;;;;6.63;3.08;;;;;;;;;;5013083;28;20048;-82
2023/07/31 07:39:44;;;;;;;3.22;2.08;;;;;;;;;;5004625;28;20061;-80
2023/07/31 07:42:10;;;;;;;4.63;2.17;;;;;;;;;;4990716;28;20038;-84
2023/07/31 07:44:36;;;;;;;5.78;3.22;;;;;;;;;;4982050;28;20565;-81
2023/07/31 07:47:02;;;;;;;5.93;3.08;;;;;;;;;;5005146;28;20069;-81
2023/07/31 07:49:28;;;;;;;5.85;2.63;;;;;;;;;;5004401;28;20399;-81
2023/07/31 07:51:54;;;;;;;3.50;2.30;;;;;;;;;;4994813;28;20046;-81
2023/07/31 07:54:21;;;;;;;4.18;2.67;;;;;;;;;;5000254;28;20418;-80
2023/07/31 07:56:47;;;;;;;5.07;2.60;;;;;;;;;;5005220;28;20045;-81
2023/07/31 07:59:13;;;;;;;3.80;2.17;;;;;;;;;;5005321;28;20042;-79
2023/07/31 08:01:39;;;;;;;4.28;2.25;;;;;;;;;;5006799;28;20084;-80
2023/07/31 08:04:05;;;;;;;5.88;2.33;;;;;;;;;;4987830;28;20046;-80
2023/07/31 08:06:31;;;;;;;3.85;2.08;;;;;;;;;;4987010;28;20042;-81
2023/07/31 08:08:57;;;;;;;3.15;2.20;;;;;;;;;;5008472;28;20506;-85
2023/07/31 08:11:23;;;;;;;3.20;2.08;;;;;;;;;;5010000;28;20061;-83
2023/07/31 08:13:49;;;;;;;2.83;1.77;;;;;;;;;;4993338;28;20049;-82
2023/07/31 08:16:15;;;;;;;4.70;1.77;;;;;;;;;;5011281;28;20037;-83
2023/07/31 08:18:45;;;;;;;4.32;1.92;;;;;;;;;;5004424;28;20038;-85
2023/07/31 08:21:11;;;;;;;4.57;2.10;;;;;;;;;;4975054;28;20042;-85
2023/07/31 08:23:37;;;;;;;2.25;1.52;;;;;;;;;;4996898;28;20041;-84
2023/07/31 08:26:03;;;;;;;3.60;2.03;;;;;;;;;;5011943;28;20457;-84
2023/07/31 08:28:29;;;;;;;4.18;2.00;;;;;;;;;;4991255;28;20038;-85
2023/07/31 08:30:55;;;;;;;3.20;1.70;;;;;;;;;;5007079;28;20099;-84
2023/07/31 08:33:21;;;;;;;1.77;1.45;;;;;;;;;;5007301;28;20623;-86
2023/07/31 08:35:47;;;;;;;2.08;1.27;;;;;;;;;;5008113;28;20042;-86
2023/07/31 08:38:13;;;;;;;2.95;1.50;;;;;;;;;;5011184;28;20080;-85
2023/07/31 08:40:39;;;;;;;2.58;1.73;;;;;;;;;;5011280;28;20046;-84
2023/07/31 08:43:05;;;;;;;2.80;1.92;;;;;;;;;;5011450;28;20064;-85
2023/07/31 08:45:31;;;;;;;2.13;1.40;;;;;;;;;;5008767;28;20432;-86
2023/07/31 08:47:57;;;;;;;2.53;1.88;;;;;;;;;;4994643;28;20124;-87
2023/07/31 08:50:23;;;;;;;2.50;1.85;;;;;;;;;;5007741;28;20037;-86
2023/07/31 08:52:50;;;;;;;2.17;1.52;;;;;;;;;;4991542;28;20081;-87
2023/07/31 08:55:16;;;;;;;2.53;1.50;;;;;;;;;;5023085;28;20444;-87
2023/07/31 08:57:43;;;;;;;1.50;1.40;;;;;;;;;;5001333;28;20092;-88
2023/07/31 09:00:10;;;;;;;1.98;1.40;;;;;;;;;;5007134;28;20037;-86
2023/07/31 09:02:42;;;;;;;2.05;1.45;;;;;;;;;;5011244;28;20100;-88
2023/07/31 09:05:08;;;;;;;1.35;1.08;;;;;;;;;;4990307;28;20381;-86
2023/07/31 09:07:36;;;;;;;2.13;1.40;;;;;;;;;;5000894;28;20073;-87
2023/07/31 09:10:02;;;;;;;3.00;1.00;;;;;;;;;;5012367;28;20045;-86
2023/07/31 09:12:28;;;;;;;2.20;1.15;;;;;;;;;;5011396;28;20041;-89
2023/07/31 09:14:54;;;;;;;0.98;0.88;;;;;;;;;;5010697;28;20048;-90
2023/07/31 09:17:33;;;;;;;1.85;1.15;;;;;;;;;;4994065;28;20041;-90
2023/07/31 09:20:15;;;;;;;1.55;1.05;;;;;;;;;;4993327;28;20064;-91
2023/07/31 09:22:41;;;;;;;0.90;0.80;;;;;;;;;;4983861;28;20132;-89
2023/07/31 09:25:21;;;;;;;1.45;1.20;;;;;;;;;;5006698;28;20482;-91
2023/07/31 09:27:51;;;;;;;1.00;0.73;;;;;;;;;;4994706;28;20124;-90
2023/07/31 09:30:20;;;;;;;1.20;0.90;;;;;;;;;;4993206;28;20038;-89
2023/07/31 09:32:48;;;;;;;1.52;0.90;;;;;;;;;;4977839;28;20077;-90
2023/07/31 09:35:21;;;;;;;1.15;1.00;;;;;;;;;;4994256;28;20073;-88
2023/07/31 09:37:51;;;;;;;1.05;0.93;;;;;;;;;;5011573;28;20050;-88
2023/07/31 09:40:37;;;;;;;1.00;0.90;;;;;;;;;;5010720;28;20415;-87
2023/07/31 09:43:07;;;;;;;1.00;0.77;;;;;;;;;;4993830;28;20085;-88
2023/07/31 09:45:36;;;;;;;0.70;0.70;;;;;;;;;;5009176;28;20038;-88
2023/07/31 09:48:02;;;;;;;1.08;0.52;;;;;;;;;;5000912;28;20057;-87
2023/07/31 09:50:29;;;;;;;1.58;0.70;;;;;;;;;;4993650;28;20035;-88
2023/07/31 09:52:56;;;;;;;0.60;0.50;;;;;;;;;;4985782;28;20052;-86
2023/07/31 09:55:22;;;;;;;0.80;0.70;;;;;;;;;;4992929;28;20041;-85
2023/07/31 09:57:49;;;;;;;1.58;0.70;;;;;;;;;;5011223;28;20080;-93
2023/07/31 10:00:19;;;;;;;1.27;0.77;;;;;;;;;;4992125;28;20042;-90
2023/07/31 10:02:48;;;;;;;1.00;0.70;;;;;;;;;;5011191;28;20395;-91
2023/07/31 10:05:18;;;;;;;2.55;0.73;;;;;;;;;;4993833;28;20443;-92
2023/07/31 10:07:57;;;;;;;1.05;0.73;;;;;;;;;;4985104;28;20113;-90
2023/07/31 10:10:24;;;;;;;0.57;0.57;;;;;;;;;;4990893;28;20050;-90
2023/07/31 10:12:50;;;;;;;0.93;0.93;;;;;;;;;;4987956;28;20125;-88
2023/07/31 10:15:17;;;;;;;0.80;0.80;;;;;;;;;;4987667;28;20045;-86
2023/07/31 10:17:43;;;;;;;0.80;0.80;;;;;;;;;;4992044;28;20045;-87
2023/07/31 10:20:10;;;;;;;0.90;0.90;;;;;;;;;;5006976;28;20049;-85
2023/07/31 10:22:36;;;;;;;1.48;0.88;;;;;;;;;;4986118;28;20103;-90
2023/07/31 10:25:02;;;;;;;0.93;0.80;;;;;;;;;;4963479;28;20133;-88
2023/07/31 10:27:28;;;;;;;1.20;1.10;;;;;;;;;;4991459;28;20084;-89
2023/07/31 10:29:59;;;;;;;1.30;0.95;;;;;;;;;;4991332;28;20084;-88
2023/07/31 10:32:25;;;;;;;1.77;0.95;;;;;;;;;;4973118;28;20046;-89
2023/07/31 10:34:52;;;;;;;1.75;1.20;;;;;;;;;;4973383;28;20125;-91
2023/07/31 10:37:36;;;;;;;1.75;0.80;;;;;;;;;;4994830;28;20089;-87
2023/07/31 10:40:06;;;;;;;1.15;0.95;;;;;;;;;;4988459;28;20240;-87
2023/07/31 10:42:52;;;;;;;0.88;0.82;;;;;;;;;;5009136;28;20135;-89
2023/07/31 10:45:36;;;;;;;1.52;0.90;;;;;;;;;;4992417;28;20101;-87
2023/07/31 10:48:03;;;;;;;1.10;1.00;;;;;;;;;;4990896;28;20077;-89
2023/07/31 10:50:32;;;;;;;0.88;0.88;;;;;;;;;;4976098;28;20087;-86
2023/07/31 10:52:58;;;;;;;1.27;0.93;;;;;;;;;;5009862;28;20081;-88
2023/07/31 10:55:31;;;;;;;1.20;0.95;;;;;;;;;;5016890;28;20042;-87
2023/07/31 10:57:59;;;;;;;1.10;1.00;;;;;;;;;;5012375;28;20433;-86
2023/07/31 11:00:29;;;;;;;1.73;1.00;;;;;;;;;;5014622;28;20030;-86
2023/07/31 11:03:10;;;;;;;1.00;0.82;;;;;;;;;;4991416;28;20057;-86
2023/07/31 11:05:54;;;;;;;0.75;0.75;;;;;;;;;;5009309;28;20077;-81
2023/07/31 11:08:24;;;;;;;0.70;0.70;;;;;;;;;;5009330;28;20453;-83
2023/07/31 11:11:10;;;;;;;1.20;1.05;;;;;;;;;;5009199;28;20046;-83
2023/07/31 11:13:44;;;;;;;0.80;0.80;;;;;;;;;;4991247;28;20115;-82
2023/07/31 11:16:10;;;;;;;0.75;0.75;;;;;;;;;;5010046;28;20107;-82
2023/07/31 11:18:38;;;;;;;0.98;0.77;;;;;;;;;;4991413;28;20050;-83
2023/07/31 11:21:04;;;;;;;0.60;0.60;;;;;;;;;;4992375;28;20042;-85
2023/07/31 11:23:31;;;;;;;0.70;0.70;;;;;;;;;;4991144;28;20046;-82
2023/07/31 11:25:59;;;;;;;1.02;0.93;;;;;;;;;;5005632;28;20077;-82
2023/07/31 11:28:25;;;;;;;0.93;0.70;;;;;;;;;;4988380;28;20070;-84
2023/07/31 11:30:51;;;;;;;0.73;0.73;;;;;;;;;;4988571;28;20080;-85
2023/07/31 11:33:17;;;;;;;0.80;0.80;;;;;;;;;;4991721;28;20045;-86
2023/07/31 11:35:45;;;;;;;1.13;0.70;;;;;;;;;;4991226;28;20065;-85
2023/07/31 11:38:31;;;;;;;0.80;0.60;;;;;;;;;;4992257;28;20038;-84
2023/07/31 11:41:05;;;;;;;0.40;0.40;;;;;;;;;;5008663;28;20042;-86
2023/07/31 11:43:32;;;;;;;0.35;0.30;;;;;;;;;;5005828;28;20041;-82
2023/07/31 11:45:58;;;;;;;0.40;0.40;;;;;;;;;;4972375;28;20042;-84
2023/07/31 11:48:33;;;;;;;1.13;0.50;;;;;;;;;;4972288;28;20423;-85
2023/07/31 11:51:01;;;;;;;0.63;0.43;;;;;;;;;;4972265;28;20054;-83
2023/07/31 11:53:46;;;;;;;2.17;0.75;;;;;;;;;;4971967;28;20049;-82
2023/07/31 11:56:14;;;;;;;1.00;0.70;;;;;;;;;;5003102;28;20049;-83
2023/07/31 11:58:41;;;;;;;1.30;0.80;;;;;;;;;;5001807;28;20105;-83
2023/07/31 12:01:07;;;;;;;1.42;0.80;;;;;;;;;;5004815;28;20046;-84
2023/07/31 12:03:34;;;;;;;1.50;1.13;;;;;;;;;;5008547;28;20064;-84
2023/07/31 12:06:00;;;;;;;1.58;1.38;;;;;;;;;;5008317;28;20048;-85
2023/07/31 12:08:26;;;;;;;1.50;1.20;;;;;;;;;;5005930;28;20034;-85
2023/07/31 12:10:53;;;;;;;1.75;0.80;;;;;;;;;;5001845;28;20042;-86
2023/07/31 12:13:23;;;;;;;1.65;1.20;;;;;;;;;;5009543;28;20046;-85
2023/07/31 12:15:49;;;;;;;1.30;1.20;;;;;;;;;;5004498;28;20046;-85
2023/07/31 12:18:19;;;;;;;1.92;1.27;;;;;;;;;;5014598;28;20107;-84
2023/07/31 12:20:50;;;;;;;1.90;0.95;;;;;;;;;;4989968;28;20117;-83
2023/07/31 12:23:17;;;;;;;2.92;1.00;;;;;;;;;;5008060;28;20061;-83
2023/07/31 12:25:43;;;;;;;3.13;0.93;;;;;;;;;;5012143;28;20442;-83
2023/07/31 12:28:12;;;;;;;3.10;0.82;;;;;;;;;;4996203;28;20065;-86
2023/07/31 12:30:39;;;;;;;1.33;0.80;;;;;;;;;;5012265;28;20148;-85
2023/07/31 12:33:06;;;;;;;1.40;0.85;;;;;;;;;;5012445;28;20048;-83
2023/07/31 12:35:37;;;;;;;2.58;1.02;;;;;;;;;;4994086;28;20050;-84
2023/07/31 12:38:03;;;;;;;1.67;1.02;;;;;;;;;;5011160;28;20049;-81
2023/07/31 12:40:29;;;;;;;3.50;1.10;;;;;;;;;;4978383;28;20384;-85
2023/07/31 12:42:55;;;;;;;1.13;1.00;;;;;;;;;;4994769;28;20100;-87
2023/07/31 12:45:21;;;;;;;2.70;1.40;;;;;;;;;;5010045;28;20048;-87
2023/07/31 12:47:47;;;;;;;2.53;1.40;;;;;;;;;;5009770;28;20494;-86
2023/07/31 12:50:13;;;;;;;3.33;1.58;;;;;;;;;;4996896;28;20038;-83
2023/07/31 12:52:39;;;;;;;3.38;1.55;;;;;;;;;;4996015;28;20405;-85
2023/07/31 12:55:05;;;;;;;3.25;1.90;;;;;;;;;;4997738;28;20042;-88
2023/07/31 12:57:31;;;;;;;4.60;2.03;;;;;;;;;;4992468;28;20038;-82
2023/07/31 12:59:57;;;;;;;4.03;2.15;;;;;;;;;;4992557;28;20125;-90
2023/07/31 13:02:23;;;;;;;3.50;1.77;;;;;;;;;;5010622;28;20114;-83
2023/07/31 13:04:50;;;;;;;2.42;1.42;;;;;;;;;;4991745;28;20056;-89
2023/07/31 13:07:16;;;;;;;5.75;2.30;;;;;;;;;;4987574;28;20070;-89
2023/07/31 13:09:42;;;;;;;2.45;1.60;;;;;;;;;;5005755;28;20042;-86
2023/07/31 13:12:09;;;;;;;2.42;1.77;;;;;;;;;;4994495;28;20073;-85
2023/07/31 13:14:35;;;;;;;3.83;2.13;;;;;;;;;;5008630;28;20041;-85
2023/07/31 13:17:01;;;;;;;3.08;2.05;;;;;;;;;;5011486;28;20050;-85
2023/07/31 13:19:27;;;;;;;3.33;2.08;;;;;;;;;;5010962;28;20072;-86
2023/07/31 13:21:53;;;;;;;2.72;1.88;;;;;;;;;;5005828;28;20042;-85
2023/07/31 13:24:19;;;;;;;4.38;2.05;;;;;;;;;;5008351;28;20107;-87
2023/07/31 13:26:45;;;;;;;4.53;2.10;;;;;;;;;;4999749;28;20038;-86
2023/07/31 13:29:11;;;;;;;4.60;2.00;;;;;;;;;;4992200;28;20048;-87
2023/07/31 13:31:37;;;;;;;2.65;1.92;;;;;;;;;;5000249;28;20107;-87
2023/07/31 13:34:03;;;;;;;2.50;1.90;;;;;;;;;;4996779;28;20041;-85
2023/07/31 13:36:29;;;;;;;2.60;1.80;;;;;;;;;;5011320;28;20636;-86
2023/07/31 13:38:55;;;;;;;1.55;1.42;;;;;;;;;;4996848;28;20050;-87
2023/07/31 13:41:21;;;;;;;3.25;1.90;;;;;;;;;;4991776;28;20046;-89
2023/07/31 13:43:47;;;;;;;4.03;1.90;;;;;;;;;;4980940;28;20041;-88
2023/07/31 13:46:13;;;;;;;2.63;1.50;;;;;;;;;;4991579;28;20043;-87
2023/07/31 13:48:39;;;;;;;3.17;1.83;;;;;;;;;;4973782;28;20050;-87
2023/07/31 13:51:05;;;;;;;4.00;1.65;;;;;;;;;;4974585;28;20459;-92
2023/07/31 13:53:31;;;;;;;5.55;1.60;;;;;;;;;;4990817;28;20130;-92
2023/07/31 13:55:57;;;;;;;5.60;1.80;;;;;;;;;;4970581;28;20117;-86
2023/07/31 13:58:23;;;;;;;3.85;2.10;;;;;;;;;;4989870;28;20046;-85
2023/07/31 14:00:49;;;;;;;5.47;2.17;;;;;;;;;;4990866;28;20077;-84
2023/07/31 14:03:15;;;;;;;4.18;1.50;;;;;;;;;;4973921;28;20130;-84
2023/07/31 14:05:42;;;;;;;3.28;2.00;;;;;;;;;;4973873;28;20129;-84
2023/07/31 14:08:11;;;;;;;3.35;1.70;;;;;;;;;;4974456;28;20395;-85
2023/07/31 14:10:37;;;;;;;3.28;1.60;;;;;;;;;;4990664;28;20145;-85
2023/07/31 14:13:03;;;;;;;4.05;1.70;;;;;;;;;;4990605;28;20564;-86
2023/07/31 14:15:29;;;;;;;3.53;1.67;;;;;;;;;;4990643;28;20125;-89
2023/07/31 14:17:55;;;;;;;4.72;2.10;;;;;;;;;;4973915;28;20069;-86
2023/07/31 14:20:21;;;;;;;4.95;1.90;;;;;;;;;;4973353;28;20046;-86
2023/07/31 14:22:47;;;;;;;3.60;2.30;;;;;;;;;;4973408;28;20096;-89
2023/07/31 14:25:13;;;;;;;2.78;1.60;;;;;;;;;;4956769;28;20431;-85
2023/07/31 14:27:39;;;;;;;4.22;2.20;;;;;;;;;;4973113;28;20046;-86
2023/07/31 14:30:05;;;;;;;3.40;1.90;;;;;;;;;;4973276;28;20073;-88
2023/07/31 14:32:31;;;;;;;2.25;1.80;;;;;;;;;;4990437;28;20046;-88
2023/07/31 14:34:58;;;;;;;3.30;2.00;;;;;;;;;;4957526;28;20403;-87
2023/07/31 14:37:27;;;;;;;4.43;1.98;;;;;;;;;;4972007;28;20057;-86
2023/07/31 14:39:53;;;;;;;5.03;1.92;;;;;;;;;;4983234;28;20064;-90